Esler Regional Airport
KESF : now visible

Airfield :











YOU CAN JOIN US ON...

 
LOGIN :

Register | Disclaimer

   EN    FR    IT 

 









Legend :    VFR   Marginal VFR   IFR   Intensive IFR   Very Intensive IFR
Visi :
Ceiling :
>= 8 km
>= 3000ft
5 to 8 km
1000 to 3000 ft
1500m to 5 km
500 to 1000 ft
800 to 1500m
200 to 500 ft
< 800m
< 200 ft
Symbols :   Thunderstorms  Fog  Heavy snow  Heavy precipitations  Wind > 20 kt






- Airport Elevation : 112 ft


KESF - Esler Regional

CURRENT METAR :
  • 220653Z AUTO VRB05KT 10SM CLR 18/16 A3001 RMK AO2 SLP159 T01830156

EXPIRED METARs :
  • 220553Z AUTO 16005KT 10SM FEW028 18/16 A3004 RMK AO2 SLP170 60000 T01830156 10206 20161 402610089 58005
  • 220538Z AUTO 16006KT 10SM SCT029 18/16 A3003 RMK AO2 T01830156
  • 220531Z AUTO 15006KT 10SM BKN029 18/16 A3003 RMK AO2 T01830156
  • 220453Z AUTO 14006KT 10SM FEW030 BKN049 18/16 A3005 RMK AO2 RAB19E29 SLP174 P0000 T01830156

TAF N/A



MET'MAP, your aeronautical weather chart ! - Copyright ORBIFLY December 2007 - Disclaimer

ORBIFLY MET'MAP TEAM :

Programming & Development : Alexandra Zaïnal
Concept & Development : Baudouin d'Aumeries
Co-Development & Prog : Marc-Olivier Méhu
Technical & hardware support : Manuel Goepfert

Contact : metmap@orbifly.com




SOURCES & CREDITS :

   NOAA       Earth
Advisory